sensor_id;sensor_type;location;lat;lon;timestamp;pressure;altitude;pressure_sealevel;temperature;humidity
61359;BME280;47228;46.762;23.598;2023-02-02T00:02:20;96793.54;;;1.64;80.77
61359;BME280;47228;46.762;23.598;2023-02-02T00:04:48;96792.30;;;1.64;80.53
61359;BME280;47228;46.762;23.598;2023-02-02T00:07:16;96789.71;;;1.66;80.39
61359;BME280;47228;46.762;23.598;2023-02-02T00:09:44;96787.08;;;1.68;80.11
61359;BME280;47228;46.762;23.598;2023-02-02T00:12:12;96784.80;;;1.70;79.84
61359;BME280;47228;46.762;23.598;2023-02-02T00:14:40;96786.77;;;1.71;79.59
61359;BME280;47228;46.762;23.598;2023-02-02T00:17:09;96786.95;;;1.73;79.56
61359;BME280;47228;46.762;23.598;2023-02-02T00:19:38;96786.39;;;1.73;78.83
61359;BME280;47228;46.762;23.598;2023-02-02T00:22:05;96788.67;;;1.71;78.52
61359;BME280;47228;46.762;23.598;2023-02-02T00:24:33;96786.21;;;1.69;78.31
61359;BME280;47228;46.762;23.598;2023-02-02T00:27:01;96784.32;;;1.67;78.20
61359;BME280;47228;46.762;23.598;2023-02-02T00:29:30;96787.20;;;1.67;78.19
61359;BME280;47228;46.762;23.598;2023-02-02T00:31:58;96785.91;;;1.65;78.40
61359;BME280;47228;46.762;23.598;2023-02-02T00:34:26;96781.08;;;1.65;78.49
61359;BME280;47228;46.762;23.598;2023-02-02T00:36:54;96783.95;;;1.64;78.55
61359;BME280;47228;46.762;23.598;2023-02-02T00:39:24;96784.94;;;1.63;78.53
61359;BME280;47228;46.762;23.598;2023-02-02T00:41:55;96781.52;;;1.62;78.29
61359;BME280;47228;46.762;23.598;2023-02-02T00:44:23;96777.48;;;1.59;78.31
61359;BME280;47228;46.762;23.598;2023-02-02T00:47:09;96777.52;;;1.55;78.28
61359;BME280;47228;46.762;23.598;2023-02-02T00:49:38;96779.98;;;1.53;78.51
61359;BME280;47228;46.762;23.598;2023-02-02T00:52:06;96772.94;;;1.53;78.51
61359;BME280;47228;46.762;23.598;2023-02-02T00:54:34;96770.18;;;1.50;78.38
61359;BME280;47228;46.762;23.598;2023-02-02T00:57:02;96774.91;;;1.50;78.41
61359;BME280;47228;46.762;23.598;2023-02-02T00:59:30;96771.09;;;1.49;78.31
61359;BME280;47228;46.762;23.598;2023-02-02T01:01:58;96773.30;;;1.46;78.31
61359;BME280;47228;46.762;23.598;2023-02-02T01:04:26;96765.70;;;1.41;78.31
61359;BME280;47228;46.762;23.598;2023-02-02T01:06:53;96765.62;;;1.37;78.10
61359;BME280;47228;46.762;23.598;2023-02-02T01:09:22;96759.89;;;1.33;78.22
61359;BME280;47228;46.762;23.598;2023-02-02T01:11:49;96753.09;;;1.32;78.26
61359;BME280;47228;46.762;23.598;2023-02-02T01:14:17;96751.99;;;1.30;78.29
61359;BME280;47228;46.762;23.598;2023-02-02T01:16:46;96753.50;;;1.29;78.25
61359;BME280;47228;46.762;23.598;2023-02-02T01:19:14;96750.61;;;1.27;78.03
61359;BME280;47228;46.762;23.598;2023-02-02T01:21:42;96746.23;;;1.24;77.93
61359;BME280;47228;46.762;23.598;2023-02-02T01:24:10;96746.25;;;1.20;77.68
61359;BME280;47228;46.762;23.598;2023-02-02T01:26:38;96737.87;;;1.15;77.63
61359;BME280;47228;46.762;23.598;2023-02-02T01:29:06;96733.35;;;1.11;77.60
61359;BME280;47228;46.762;23.598;2023-02-02T01:31:34;96731.43;;;1.08;77.27
61359;BME280;47228;46.762;23.598;2023-02-02T01:34:02;96724.33;;;1.06;77.34
61359;BME280;47228;46.762;23.598;2023-02-02T01:36:30;96721.53;;;1.04;77.17
61359;BME280;47228;46.762;23.598;2023-02-02T01:38:58;96721.92;;;1.02;77.20
61359;BME280;47228;46.762;23.598;2023-02-02T01:41:26;96725.59;;;1.00;77.17
61359;BME280;47228;46.762;23.598;2023-02-02T01:44:05;96722.41;;;0.99;77.40
61359;BME280;47228;46.762;23.598;2023-02-02T01:46:35;96723.73;;;0.98;77.52
61359;BME280;47228;46.762;23.598;2023-02-02T01:49:10;96723.78;;;0.97;77.46
61359;BME280;47228;46.762;23.598;2023-02-02T01:51:52;96724.23;;;0.96;77.34
61359;BME280;47228;46.762;23.598;2023-02-02T01:54:38;96723.32;;;0.97;77.21
61359;BME280;47228;46.762;23.598;2023-02-02T01:57:11;96725.34;;;0.99;77.30
61359;BME280;47228;46.762;23.598;2023-02-02T01:59:42;96724.91;;;1.04;77.52
61359;BME280;47228;46.762;23.598;2023-02-02T02:02:12;96725.22;;;1.09;77.42
61359;BME280;47228;46.762;23.598;2023-02-02T02:04:40;96723.59;;;1.13;77.34
61359;BME280;47228;46.762;23.598;2023-02-02T02:07:09;96724.63;;;1.15;77.19
61359;BME280;47228;46.762;23.598;2023-02-02T02:09:38;96723.32;;;1.16;77.10
61359;BME280;47228;46.762;23.598;2023-02-02T02:12:13;96717.17;;;1.16;77.00
61359;BME280;47228;46.762;23.598;2023-02-02T02:14:44;96714.66;;;1.15;76.87
61359;BME280;47228;46.762;23.598;2023-02-02T02:35:12;96718.85;;;1.00;76.91
61359;BME280;47228;46.762;23.598;2023-02-02T02:40:46;96721.54;;;0.87;77.15
61359;BME280;47228;46.762;23.598;2023-02-02T02:43:38;96718.65;;;0.83;77.46
61359;BME280;47228;46.762;23.598;2023-02-02T02:46:09;96717.73;;;0.81;77.82
61359;BME280;47228;46.762;23.598;2023-02-02T02:48:38;96715.86;;;0.82;77.93
61359;BME280;47228;46.762;23.598;2023-02-02T02:54:21;96708.55;;;0.89;77.70
61359;BME280;47228;46.762;23.598;2023-02-02T03:08:39;96686.11;;;1.06;77.32
61359;BME280;47228;46.762;23.598;2023-02-02T03:11:12;96683.93;;;0.98;77.21
61359;BME280;47228;46.762;23.598;2023-02-02T03:13:41;96680.31;;;0.91;77.49
61359;BME280;47228;46.762;23.598;2023-02-02T03:16:10;96680.34;;;0.86;77.92
61359;BME280;47228;46.762;23.598;2023-02-02T03:18:38;96677.34;;;0.83;78.34
61359;BME280;47228;46.762;23.598;2023-02-02T03:21:06;96671.58;;;0.78;78.12
61359;BME280;47228;46.762;23.598;2023-02-02T03:23:34;96668.23;;;0.71;78.44
61359;BME280;47228;46.762;23.598;2023-02-02T03:26:02;96665.95;;;0.68;78.75
61359;BME280;47228;46.762;23.598;2023-02-02T03:28:31;96660.90;;;0.64;78.82
61359;BME280;47228;46.762;23.598;2023-02-02T03:30:59;96662.91;;;0.60;78.77
61359;BME280;47228;46.762;23.598;2023-02-02T03:33:29;96666.84;;;0.52;78.71
61359;BME280;47228;46.762;23.598;2023-02-02T03:35:58;96667.10;;;0.44;78.90
61359;BME280;47228;46.762;23.598;2023-02-02T03:38:26;96663.83;;;0.39;79.16
61359;BME280;47228;46.762;23.598;2023-02-02T03:40:54;96667.65;;;0.33;79.38
61359;BME280;47228;46.762;23.598;2023-02-02T03:43:23;96663.46;;;0.30;79.86
61359;BME280;47228;46.762;23.598;2023-02-02T03:45:59;96658.17;;;0.29;80.08
61359;BME280;47228;46.762;23.598;2023-02-02T03:48:27;96652.77;;;0.27;79.99
61359;BME280;47228;46.762;23.598;2023-02-02T03:50:55;96648.23;;;0.23;80.08
61359;BME280;47228;46.762;23.598;2023-02-02T03:53:23;96646.01;;;0.21;80.32
61359;BME280;47228;46.762;23.598;2023-02-02T03:55:51;96653.95;;;0.17;80.24
61359;BME280;47228;46.762;23.598;2023-02-02T03:58:19;96656.45;;;0.15;80.55
61359;BME280;47228;46.762;23.598;2023-02-02T04:00:49;96653.66;;;0.13;80.76
61359;BME280;47228;46.762;23.598;2023-02-02T04:03:17;96657.02;;;0.10;80.91
61359;BME280;47228;46.762;23.598;2023-02-02T04:05:48;96655.44;;;0.09;81.14
61359;BME280;47228;46.762;23.598;2023-02-02T04:08:16;96653.86;;;0.07;81.36
61359;BME280;47228;46.762;23.598;2023-02-02T04:10:44;96655.86;;;0.08;81.36
61359;BME280;47228;46.762;23.598;2023-02-02T04:13:12;96661.48;;;0.09;81.26
61359;BME280;47228;46.762;23.598;2023-02-02T04:15:40;96662.36;;;0.08;81.24
61359;BME280;47228;46.762;23.598;2023-02-02T04:18:08;96654.90;;;0.06;81.48
61359;BME280;47228;46.762;23.598;2023-02-02T04:20:36;96650.91;;;0.04;81.56
61359;BME280;47228;46.762;23.598;2023-02-02T04:23:04;96654.25;;;0.00;81.34
61359;BME280;47228;46.762;23.598;2023-02-02T04:25:32;96643.14;;;-0.06;81.33
61359;BME280;47228;46.762;23.598;2023-02-02T04:28:00;96631.66;;;-0.06;81.69
61359;BME280;47228;46.762;23.598;2023-02-02T04:30:28;96627.14;;;-0.03;81.80
61359;BME280;47228;46.762;23.598;2023-02-02T04:32:55;96624.63;;;0.04;81.76
61359;BME280;47228;46.762;23.598;2023-02-02T04:35:23;96623.64;;;0.08;81.53
61359;BME280;47228;46.762;23.598;2023-02-02T04:37:54;96622.48;;;0.11;81.44
61359;BME280;47228;46.762;23.598;2023-02-02T04:40:22;96625.77;;;0.15;81.52
61359;BME280;47228;46.762;23.598;2023-02-02T04:42:50;96625.45;;;0.18;81.56
61359;BME280;47228;46.762;23.598;2023-02-02T04:45:21;96627.70;;;0.17;80.89
61359;BME280;47228;46.762;23.598;2023-02-02T04:47:50;96623.87;;;0.13;81.02
61359;BME280;47228;46.762;23.598;2023-02-02T04:50:17;96626.21;;;0.12;81.09
61359;BME280;47228;46.762;23.598;2023-02-02T04:52:45;96631.21;;;0.13;81.29
61359;BME280;47228;46.762;23.598;2023-02-02T04:55:13;96630.08;;;0.14;81.48
61359;BME280;47228;46.762;23.598;2023-02-02T04:57:41;96631.34;;;0.15;81.63
61359;BME280;47228;46.762;23.598;2023-02-02T05:00:10;96644.59;;;0.15;81.26
61359;BME280;47228;46.762;23.598;2023-02-02T05:02:42;96644.41;;;0.11;81.20
61359;BME280;47228;46.762;23.598;2023-02-02T05:05:12;96642.73;;;0.11;81.34
61359;BME280;47228;46.762;23.598;2023-02-02T05:07:41;96648.70;;;0.14;81.44
61359;BME280;47228;46.762;23.598;2023-02-02T05:10:09;96647.61;;;0.15;81.24
61359;BME280;47228;46.762;23.598;2023-02-02T05:12:37;96649.27;;;0.15;81.34
61359;BME280;47228;46.762;23.598;2023-02-02T05:15:06;96651.41;;;0.16;81.56
61359;BME280;47228;46.762;23.598;2023-02-02T05:17:34;96647.59;;;0.18;81.44
61359;BME280;47228;46.762;23.598;2023-02-02T05:20:02;96643.73;;;0.18;81.13
61359;BME280;47228;46.762;23.598;2023-02-02T05:22:30;96626.14;;;0.20;81.62
61359;BME280;47228;46.762;23.598;2023-02-02T05:24:58;96625.27;;;0.23;81.83
61359;BME280;47228;46.762;23.598;2023-02-02T05:27:26;96619.65;;;0.27;81.84
61359;BME280;47228;46.762;23.598;2023-02-02T05:29:54;96607.95;;;0.31;81.95
61359;BME280;47228;46.762;23.598;2023-02-02T05:32:22;96601.04;;;0.34;82.02
61359;BME280;47228;46.762;23.598;2023-02-02T05:34:50;96610.38;;;0.35;82.05
61359;BME280;47228;46.762;23.598;2023-02-02T05:37:18;96619.63;;;0.33;81.94
61359;BME280;47228;46.762;23.598;2023-02-02T05:39:46;96620.11;;;0.32;81.79
61359;BME280;47228;46.762;23.598;2023-02-02T05:42:14;96616.88;;;0.31;81.97
61359;BME280;47228;46.762;23.598;2023-02-02T05:44:42;96615.02;;;0.29;81.81
61359;BME280;47228;46.762;23.598;2023-02-02T05:47:10;96623.30;;;0.26;81.93
61359;BME280;47228;46.762;23.598;2023-02-02T05:49:37;96616.53;;;0.24;82.25
61359;BME280;47228;46.762;23.598;2023-02-02T05:52:05;96618.84;;;0.22;82.27
61359;BME280;47228;46.762;23.598;2023-02-02T05:54:34;96613.91;;;0.20;82.42
61359;BME280;47228;46.762;23.598;2023-02-02T05:57:02;96611.40;;;0.21;82.74
61359;BME280;47228;46.762;23.598;2023-02-02T05:59:29;96619.48;;;0.24;82.81
61359;BME280;47228;46.762;23.598;2023-02-02T06:01:57;96612.96;;;0.25;82.77
61359;BME280;47228;46.762;23.598;2023-02-02T06:04:25;96617.22;;;0.24;82.71
61359;BME280;47228;46.762;23.598;2023-02-02T06:06:53;96619.38;;;0.23;82.59
61359;BME280;47228;46.762;23.598;2023-02-02T06:09:21;96628.02;;;0.22;82.62
61359;BME280;47228;46.762;23.598;2023-02-02T06:11:50;96633.73;;;0.17;82.33
61359;BME280;47228;46.762;23.598;2023-02-02T06:14:18;96626.21;;;0.12;82.28
61359;BME280;47228;46.762;23.598;2023-02-02T06:16:46;96622.41;;;0.08;82.15
61359;BME280;47228;46.762;23.598;2023-02-02T06:19:14;96619.69;;;0.05;82.43
61359;BME280;47228;46.762;23.598;2023-02-02T06:21:42;96610.42;;;0.01;82.52
61359;BME280;47228;46.762;23.598;2023-02-02T06:24:10;96606.88;;;-0.02;82.69
61359;BME280;47228;46.762;23.598;2023-02-02T06:26:38;96609.89;;;-0.06;82.68
61359;BME280;47228;46.762;23.598;2023-02-02T06:29:06;96613.42;;;-0.10;82.87
61359;BME280;47228;46.762;23.598;2023-02-02T06:31:34;96614.76;;;-0.09;83.02
61359;BME280;47228;46.762;23.598;2023-02-02T06:34:02;96615.42;;;-0.07;83.19
61359;BME280;47228;46.762;23.598;2023-02-02T06:36:30;96621.48;;;-0.05;83.29
61359;BME280;47228;46.762;23.598;2023-02-02T06:38:58;96622.54;;;-0.02;83.57
61359;BME280;47228;46.762;23.598;2023-02-02T06:41:26;96628.57;;;0.03;83.57
61359;BME280;47228;46.762;23.598;2023-02-02T06:43:54;96625.02;;;0.05;83.42
61359;BME280;47228;46.762;23.598;2023-02-02T06:46:22;96629.47;;;0.06;83.23
61359;BME280;47228;46.762;23.598;2023-02-02T06:48:50;96636.72;;;0.06;83.26
61359;BME280;47228;46.762;23.598;2023-02-02T06:51:18;96646.02;;;0.08;83.30
61359;BME280;47228;46.762;23.598;2023-02-02T06:53:47;96647.81;;;0.10;83.33
61359;BME280;47228;46.762;23.598;2023-02-02T06:56:18;96653.42;;;0.15;83.34
61359;BME280;47228;46.762;23.598;2023-02-02T06:58:46;96650.19;;;0.20;83.36
61359;BME280;47228;46.762;23.598;2023-02-02T07:01:14;96647.33;;;0.24;83.24
61359;BME280;47228;46.762;23.598;2023-02-02T07:03:42;96651.38;;;0.25;82.84
61359;BME280;47228;46.762;23.598;2023-02-02T07:06:16;96654.27;;;0.28;83.05
61359;BME280;47228;46.762;23.598;2023-02-02T07:08:45;96656.31;;;0.32;83.07
61359;BME280;47228;46.762;23.598;2023-02-02T07:11:31;96664.30;;;0.35;82.86
61359;BME280;47228;46.762;23.598;2023-02-02T07:14:07;96665.34;;;0.39;82.82
61359;BME280;47228;46.762;23.598;2023-02-02T07:16:36;96666.98;;;0.44;82.82
61359;BME280;47228;46.762;23.598;2023-02-02T07:19:04;96670.30;;;0.47;82.80
61359;BME280;47228;46.762;23.598;2023-02-02T07:21:32;96670.35;;;0.50;82.86
61359;BME280;47228;46.762;23.598;2023-02-02T07:24:04;96669.55;;;0.53;82.76
61359;BME280;47228;46.762;23.598;2023-02-02T07:26:33;96672.16;;;0.55;82.71
61359;BME280;47228;46.762;23.598;2023-02-02T07:29:02;96670.64;;;0.56;82.78
61359;BME280;47228;46.762;23.598;2023-02-02T07:31:31;96670.98;;;0.57;82.81
61359;BME280;47228;46.762;23.598;2023-02-02T07:34:03;96675.59;;;0.60;82.92
61359;BME280;47228;46.762;23.598;2023-02-02T07:36:31;96673.64;;;0.64;83.00
61359;BME280;47228;46.762;23.598;2023-02-02T07:38:59;96671.55;;;0.70;82.73
61359;BME280;47228;46.762;23.598;2023-02-02T07:41:30;96674.24;;;0.74;82.84
61359;BME280;47228;46.762;23.598;2023-02-02T07:44:00;96674.13;;;0.78;82.85
61359;BME280;47228;46.762;23.598;2023-02-02T07:46:29;96676.33;;;0.82;82.71
61359;BME280;47228;46.762;23.598;2023-02-02T07:48:57;96677.88;;;0.86;81.93
61359;BME280;47228;46.762;23.598;2023-02-02T07:51:25;96676.35;;;0.87;81.29
61359;BME280;47228;46.762;23.598;2023-02-02T07:53:53;96674.27;;;0.89;80.55
61359;BME280;47228;46.762;23.598;2023-02-02T07:56:24;96675.33;;;0.92;79.95
61359;BME280;47228;46.762;23.598;2023-02-02T07:58:53;96675.07;;;0.98;79.24
61359;BME280;47228;46.762;23.598;2023-02-02T08:01:22;96678.27;;;1.05;78.92
61359;BME280;47228;46.762;23.598;2023-02-02T08:03:54;96679.06;;;1.10;78.21
61359;BME280;47228;46.762;23.598;2023-02-02T08:06:30;96675.73;;;1.15;78.29
61359;BME280;47228;46.762;23.598;2023-02-02T08:08:59;96675.98;;;1.22;77.98
61359;BME280;47228;46.762;23.598;2023-02-02T08:11:28;96676.99;;;1.27;78.09
61359;BME280;47228;46.762;23.598;2023-02-02T08:13:58;96683.20;;;1.33;77.73
61359;BME280;47228;46.762;23.598;2023-02-02T08:16:28;96679.15;;;1.40;77.87
61359;BME280;47228;46.762;23.598;2023-02-02T08:18:56;96680.13;;;1.47;77.51
61359;BME280;47228;46.762;23.598;2023-02-02T08:21:24;96676.67;;;1.52;76.80
61359;BME280;47228;46.762;23.598;2023-02-02T08:23:52;96677.85;;;1.57;76.36
61359;BME280;47228;46.762;23.598;2023-02-02T08:26:23;96683.91;;;1.63;76.49
61359;BME280;47228;46.762;23.598;2023-02-02T08:28:58;96687.61;;;1.71;76.32
61359;BME280;47228;46.762;23.598;2023-02-02T08:31:29;96691.25;;;1.78;76.29
61359;BME280;47228;46.762;23.598;2023-02-02T08:33:58;96695.05;;;1.82;76.54
61359;BME280;47228;46.762;23.598;2023-02-02T08:36:27;96693.89;;;1.79;76.51
61359;BME280;47228;46.762;23.598;2023-02-02T08:39:00;96699.36;;;1.77;77.19
61359;BME280;47228;46.762;23.598;2023-02-02T08:41:30;96703.19;;;1.77;77.59
61359;BME280;47228;46.762;23.598;2023-02-02T08:43:58;96705.25;;;1.77;77.88
61359;BME280;47228;46.762;23.598;2023-02-02T08:46:26;96703.09;;;1.75;78.35
61359;BME280;47228;46.762;23.598;2023-02-02T08:48:54;96704.73;;;1.76;78.97
61359;BME280;47228;46.762;23.598;2023-02-02T08:51:22;96704.60;;;1.77;79.26
61359;BME280;47228;46.762;23.598;2023-02-02T08:53:50;96710.23;;;1.77;79.32
61359;BME280;47228;46.762;23.598;2023-02-02T08:56:20;96710.40;;;1.78;79.52
61359;BME280;47228;46.762;23.598;2023-02-02T08:58:50;96711.90;;;1.81;79.40
61359;BME280;47228;46.762;23.598;2023-02-02T09:01:24;96714.71;;;1.80;79.33
61359;BME280;47228;46.762;23.598;2023-02-02T09:03:53;96716.45;;;1.77;79.26
61359;BME280;47228;46.762;23.598;2023-02-02T09:06:25;96718.84;;;1.73;79.62
61359;BME280;47228;46.762;23.598;2023-02-02T09:08:54;96718.90;;;1.71;79.55
61359;BME280;47228;46.762;23.598;2023-02-02T09:11:22;96722.10;;;1.73;79.83
61359;BME280;47228;46.762;23.598;2023-02-02T09:13:54;96723.65;;;1.82;80.45
61359;BME280;47228;46.762;23.598;2023-02-02T09:16:24;96725.52;;;1.92;79.89
61359;BME280;47228;46.762;23.598;2023-02-02T09:18:53;96728.34;;;2.02;79.86
61359;BME280;47228;46.762;23.598;2023-02-02T09:21:22;96732.10;;;2.08;78.56
61359;BME280;47228;46.762;23.598;2023-02-02T09:23:52;96732.60;;;2.08;78.66
61359;BME280;47228;46.762;23.598;2023-02-02T09:26:25;96736.42;;;2.10;78.16
61359;BME280;47228;46.762;23.598;2023-02-02T09:28:55;96735.23;;;2.11;77.48
61359;BME280;47228;46.762;23.598;2023-02-02T09:31:25;96732.58;;;2.15;77.73
61359;BME280;47228;46.762;23.598;2023-02-02T09:33:53;96732.88;;;2.19;76.91
61359;BME280;47228;46.762;23.598;2023-02-02T09:36:23;96730.13;;;2.20;75.39
61359;BME280;47228;46.762;23.598;2023-02-02T09:38:51;96729.96;;;2.20;75.55
61359;BME280;47228;46.762;23.598;2023-02-02T09:49:43;96726.96;;;2.30;75.48
61359;BME280;47228;46.762;23.598;2023-02-02T09:52:23;96726.23;;;2.33;75.47
61359;BME280;47228;46.762;23.598;2023-02-02T09:55:04;96728.70;;;2.35;75.71
61359;BME280;47228;46.762;23.598;2023-02-02T09:57:41;96725.76;;;2.35;75.18
61359;BME280;47228;46.762;23.598;2023-02-02T10:00:27;96720.81;;;2.32;74.87
61359;BME280;47228;46.762;23.598;2023-02-02T10:03:05;96718.13;;;2.32;75.24
61359;BME280;47228;46.762;23.598;2023-02-02T10:08:43;96730.67;;;2.29;75.21
61359;BME280;47228;46.762;23.598;2023-02-02T10:11:33;96732.48;;;2.26;75.23
61359;BME280;47228;46.762;23.598;2023-02-02T10:14:08;96738.02;;;2.18;75.70
61359;BME280;47228;46.762;23.598;2023-02-02T10:16:39;96744.64;;;2.11;76.42
61359;BME280;47228;46.762;23.598;2023-02-02T10:19:13;96744.58;;;2.02;77.00
61359;BME280;47228;46.762;23.598;2023-02-02T10:21:50;96748.51;;;1.93;77.75
61359;BME280;47228;46.762;23.598;2023-02-02T10:24:23;96758.59;;;1.82;78.62
61359;BME280;47228;46.762;23.598;2023-02-02T10:27:01;96761.19;;;1.72;79.12
61359;BME280;47228;46.762;23.598;2023-02-02T10:30:00;96761.86;;;1.68;80.07
61359;BME280;47228;46.762;23.598;2023-02-02T10:32:41;96758.03;;;1.70;80.46
61359;BME280;47228;46.762;23.598;2023-02-02T10:38:26;96760.38;;;1.75;81.33
61359;BME280;47228;46.762;23.598;2023-02-02T10:41:19;96760.22;;;1.81;81.61
61359;BME280;47228;46.762;23.598;2023-02-02T10:49:13;96764.21;;;1.91;81.43
61359;BME280;47228;46.762;23.598;2023-02-02T10:51:48;96766.17;;;1.94;81.29
61359;BME280;47228;46.762;23.598;2023-02-02T10:57:09;96765.02;;;1.94;80.68
61359;BME280;47228;46.762;23.598;2023-02-02T10:59:51;96767.86;;;1.95;80.64
61359;BME280;47228;46.762;23.598;2023-02-02T11:02:24;96767.43;;;1.97;80.76
61359;BME280;47228;46.762;23.598;2023-02-02T11:04:53;96764.09;;;2.01;80.76
61359;BME280;47228;46.762;23.598;2023-02-02T11:07:39;96762.85;;;2.03;80.36
61359;BME280;47228;46.762;23.598;2023-02-02T11:10:08;96756.80;;;2.09;80.44
61359;BME280;47228;46.762;23.598;2023-02-02T11:12:41;96754.98;;;2.16;80.30
61359;BME280;47228;46.762;23.598;2023-02-02T11:15:38;96753.91;;;2.26;80.40
61359;BME280;47228;46.762;23.598;2023-02-02T11:18:13;96758.86;;;2.37;80.05
61359;BME280;47228;46.762;23.598;2023-02-02T11:20:53;96760.27;;;2.45;79.45
61359;BME280;47228;46.762;23.598;2023-02-02T11:23:22;96757.92;;;2.53;78.84
61359;BME280;47228;46.762;23.598;2023-02-02T11:25:59;96756.56;;;2.60;78.27
61359;BME280;47228;46.762;23.598;2023-02-02T11:28:32;96754.84;;;2.66;77.58
61359;BME280;47228;46.762;23.598;2023-02-02T11:31:01;96750.47;;;2.75;77.81
61359;BME280;47228;46.762;23.598;2023-02-02T11:33:32;96748.55;;;2.81;76.35
61359;BME280;47228;46.762;23.598;2023-02-02T11:36:21;96749.83;;;2.82;74.89
61359;BME280;47228;46.762;23.598;2023-02-02T11:39:15;96753.52;;;2.82;74.53
61359;BME280;47228;46.762;23.598;2023-02-02T11:41:46;96749.80;;;2.81;73.82
61359;BME280;47228;46.762;23.598;2023-02-02T11:44:26;96748.55;;;2.80;72.06
61359;BME280;47228;46.762;23.598;2023-02-02T11:46:54;96748.14;;;2.77;72.03
61359;BME280;47228;46.762;23.598;2023-02-02T11:49:24;96744.59;;;2.77;72.46
61359;BME280;47228;46.762;23.598;2023-02-02T11:52:01;96748.25;;;2.82;72.58
61359;BME280;47228;46.762;23.598;2023-02-02T11:54:36;96744.07;;;2.89;72.74
61359;BME280;47228;46.762;23.598;2023-02-02T11:57:08;96743.94;;;2.96;72.97
61359;BME280;47228;46.762;23.598;2023-02-02T11:59:42;96746.14;;;3.05;72.35
61359;BME280;47228;46.762;23.598;2023-02-02T12:02:30;96749.39;;;3.10;71.86
61359;BME280;47228;46.762;23.598;2023-02-02T12:07:52;96751.04;;;3.20;71.59
61359;BME280;47228;46.762;23.598;2023-02-02T12:18:33;96744.52;;;3.34;70.29
61359;BME280;47228;46.762;23.598;2023-02-02T12:21:06;96742.55;;;3.44;70.75
61359;BME280;47228;46.762;23.598;2023-02-02T12:26:59;96744.77;;;3.51;68.86
61359;BME280;47228;46.762;23.598;2023-02-02T12:29:51;96740.34;;;3.52;68.61
61359;BME280;47228;46.762;23.598;2023-02-02T12:38:09;96753.83;;;3.50;66.98
61359;BME280;47228;46.762;23.598;2023-02-02T12:52:06;96753.45;;;3.47;67.20
61359;BME280;47228;46.762;23.598;2023-02-02T13:06:26;96760.33;;;3.73;65.16
61359;BME280;47228;46.762;23.598;2023-02-02T13:08:48;96757.30;;;3.73;63.62
61359;BME280;47228;46.762;23.598;2023-02-02T13:11:34;96757.55;;;3.74;64.62
61359;BME280;47228;46.762;23.598;2023-02-02T13:14:08;96760.95;;;3.77;64.03
61359;BME280;47228;46.762;23.598;2023-02-02T13:16:41;96759.94;;;3.77;63.57
61359;BME280;47228;46.762;23.598;2023-02-02T13:19:28;96762.59;;;3.76;63.09
61359;BME280;47228;46.762;23.598;2023-02-02T13:22:00;96766.42;;;3.73;62.33
61359;BME280;47228;46.762;23.598;2023-02-02T13:24:32;96765.40;;;3.70;61.99
61359;BME280;47228;46.762;23.598;2023-02-02T13:27:04;96768.20;;;3.62;60.99
61359;BME280;47228;46.762;23.598;2023-02-02T13:29:38;96773.21;;;3.53;61.39
61359;BME280;47228;46.762;23.598;2023-02-02T13:32:25;96776.02;;;3.47;61.51
61359;BME280;47228;46.762;23.598;2023-02-02T13:37:35;96784.23;;;3.33;62.44
61359;BME280;47228;46.762;23.598;2023-02-02T13:42:54;96790.38;;;3.17;62.72
61359;BME280;47228;46.762;23.598;2023-02-02T13:45:40;96796.83;;;3.12;63.14
61359;BME280;47228;46.762;23.598;2023-02-02T14:02:55;96815.56;;;2.83;64.53
61359;BME280;47228;46.762;23.598;2023-02-02T14:10:31;96826.41;;;2.82;65.71
61359;BME280;47228;46.762;23.598;2023-02-02T14:13:07;96824.15;;;2.82;65.90
61359;BME280;47228;46.762;23.598;2023-02-02T14:16:02;96826.57;;;2.82;65.52
61359;BME280;47228;46.762;23.598;2023-02-02T14:18:52;96828.91;;;2.80;65.38
61359;BME280;47228;46.762;23.598;2023-02-02T14:24:17;96837.50;;;2.82;65.98
61359;BME280;47228;46.762;23.598;2023-02-02T14:26:55;96838.38;;;2.82;65.99
61359;BME280;47228;46.762;23.598;2023-02-02T14:37:40;96830.20;;;2.73;65.35
61359;BME280;47228;46.762;23.598;2023-02-02T14:51:24;96824.25;;;2.70;65.94
61359;BME280;47228;46.762;23.598;2023-02-02T14:53:56;96822.96;;;2.70;65.84
61359;BME280;47228;46.762;23.598;2023-02-02T14:56:46;96821.27;;;2.72;65.86
61359;BME280;47228;46.762;23.598;2023-02-02T14:59:24;96828.58;;;2.72;65.72
61359;BME280;47228;46.762;23.598;2023-02-02T15:04:28;96834.86;;;2.72;65.65
61359;BME280;47228;46.762;23.598;2023-02-02T15:09:54;96834.20;;;2.72;65.79
61359;BME280;47228;46.762;23.598;2023-02-02T15:12:30;96834.83;;;2.70;66.07
61359;BME280;47228;46.762;23.598;2023-02-02T15:15:19;96838.21;;;2.68;65.95
61359;BME280;47228;46.762;23.598;2023-02-02T15:17:57;96837.15;;;2.67;66.29
61359;BME280;47228;46.762;23.598;2023-02-02T15:23:20;96842.45;;;2.63;66.14
61359;BME280;47228;46.762;23.598;2023-02-02T15:31:01;96844.58;;;2.60;66.34
61359;BME280;47228;46.762;23.598;2023-02-02T15:33:35;96850.30;;;2.62;66.75
61359;BME280;47228;46.762;23.598;2023-02-02T15:36:15;96852.08;;;2.65;67.02
61359;BME280;47228;46.762;23.598;2023-02-02T15:38:47;96854.69;;;2.66;66.80
61359;BME280;47228;46.762;23.598;2023-02-02T15:41:41;96860.64;;;2.68;66.89
61359;BME280;47228;46.762;23.598;2023-02-02T15:44:24;96863.94;;;2.68;66.81
61359;BME280;47228;46.762;23.598;2023-02-02T15:46:54;96860.36;;;2.67;66.68
61359;BME280;47228;46.762;23.598;2023-02-02T15:49:27;96858.40;;;2.66;66.81
61359;BME280;47228;46.762;23.598;2023-02-02T15:52:29;96862.39;;;2.65;67.00
61359;BME280;47228;46.762;23.598;2023-02-02T15:55:00;96867.71;;;2.61;66.99
61359;BME280;47228;46.762;23.598;2023-02-02T15:57:36;96864.92;;;2.56;67.03
61359;BME280;47228;46.762;23.598;2023-02-02T16:00:30;96862.67;;;2.50;67.04
61359;BME280;47228;46.762;23.598;2023-02-02T16:08:06;96868.61;;;2.29;67.03
61359;BME280;47228;46.762;23.598;2023-02-02T16:10:35;96872.05;;;2.21;67.24
61359;BME280;47228;46.762;23.598;2023-02-02T16:13:03;96875.02;;;2.12;67.40